sensor_id;sensor_type;location;lat;lon;timestamp;P1;durP1;ratioP1;P2;durP2;ratioP2
59127;SDS011;44912;52.754;5.994;2023-02-25T00:00:43;21.42;;;3.75;;
59127;SDS011;44912;52.754;5.994;2023-02-25T00:03:11;23.25;;;3.35;;
59127;SDS011;44912;52.754;5.994;2023-02-25T00:05:39;19.52;;;3.40;;
59127;SDS011;44912;52.754;5.994;2023-02-25T00:08:06;26.05;;;3.20;;
59127;SDS011;44912;52.754;5.994;2023-02-25T00:10:32;21.27;;;2.92;;
59127;SDS011;44912;52.754;5.994;2023-02-25T00:12:58;20.85;;;3.30;;
59127;SDS011;44912;52.754;5.994;2023-02-25T00:15:24;17.10;;;2.80;;
59127;SDS011;44912;52.754;5.994;2023-02-25T00:17:50;21.13;;;3.60;;
59127;SDS011;44912;52.754;5.994;2023-02-25T00:20:16;20.00;;;3.40;;
59127;SDS011;44912;52.754;5.994;2023-02-25T00:22:44;25.40;;;3.13;;
59127;SDS011;44912;52.754;5.994;2023-02-25T00:25:10;21.63;;;3.63;;
59127;SDS011;44912;52.754;5.994;2023-02-25T00:27:35;21.40;;;3.75;;
59127;SDS011;44912;52.754;5.994;2023-02-25T00:30:01;27.58;;;4.13;;
59127;SDS011;44912;52.754;5.994;2023-02-25T00:32:28;26.08;;;4.15;;
59127;SDS011;44912;52.754;5.994;2023-02-25T00:34:54;24.63;;;3.78;;
59127;SDS011;44912;52.754;5.994;2023-02-25T00:37:19;24.65;;;4.65;;
59127;SDS011;44912;52.754;5.994;2023-02-25T00:39:45;27.35;;;3.78;;
59127;SDS011;44912;52.754;5.994;2023-02-25T00:42:11;20.48;;;3.10;;
59127;SDS011;44912;52.754;5.994;2023-02-25T00:44:38;19.83;;;3.67;;
59127;SDS011;44912;52.754;5.994;2023-02-25T00:47:06;19.83;;;3.15;;
59127;SDS011;44912;52.754;5.994;2023-02-25T00:49:32;19.95;;;2.88;;
59127;SDS011;44912;52.754;5.994;2023-02-25T00:51:58;15.65;;;2.72;;
59127;SDS011;44912;52.754;5.994;2023-02-25T00:54:23;15.38;;;2.95;;
59127;SDS011;44912;52.754;5.994;2023-02-25T00:56:49;20.85;;;3.30;;
59127;SDS011;44912;52.754;5.994;2023-02-25T00:59:15;14.60;;;2.53;;
59127;SDS011;44912;52.754;5.994;2023-02-25T01:01:40;18.05;;;2.45;;
59127;SDS011;44912;52.754;5.994;2023-02-25T01:04:06;19.52;;;2.85;;
59127;SDS011;44912;52.754;5.994;2023-02-25T01:06:33;16.45;;;3.30;;
59127;SDS011;44912;52.754;5.994;2023-02-25T01:09:02;17.50;;;2.60;;
59127;SDS011;44912;52.754;5.994;2023-02-25T01:11:30;21.48;;;2.95;;
59127;SDS011;44912;52.754;5.994;2023-02-25T01:14:02;17.63;;;2.65;;
59127;SDS011;44912;52.754;5.994;2023-02-25T01:16:30;16.85;;;2.70;;
59127;SDS011;44912;52.754;5.994;2023-02-25T01:18:58;18.48;;;3.63;;
59127;SDS011;44912;52.754;5.994;2023-02-25T01:21:27;17.08;;;2.58;;
59127;SDS011;44912;52.754;5.994;2023-02-25T01:23:55;17.40;;;2.45;;
59127;SDS011;44912;52.754;5.994;2023-02-25T01:26:22;14.90;;;2.60;;
59127;SDS011;44912;52.754;5.994;2023-02-25T01:28:49;19.80;;;2.50;;
59127;SDS011;44912;52.754;5.994;2023-02-25T01:31:15;18.80;;;3.75;;
59127;SDS011;44912;52.754;5.994;2023-02-25T01:33:42;22.48;;;3.10;;
59127;SDS011;44912;52.754;5.994;2023-02-25T01:36:08;18.35;;;2.80;;
59127;SDS011;44912;52.754;5.994;2023-02-25T01:38:34;25.65;;;3.60;;
59127;SDS011;44912;52.754;5.994;2023-02-25T01:41:00;22.60;;;3.20;;
59127;SDS011;44912;52.754;5.994;2023-02-25T01:43:26;19.52;;;2.83;;
59127;SDS011;44912;52.754;5.994;2023-02-25T01:45:53;19.27;;;2.92;;
59127;SDS011;44912;52.754;5.994;2023-02-25T01:48:29;19.88;;;2.85;;
59127;SDS011;44912;52.754;5.994;2023-02-25T01:50:59;20.88;;;3.20;;
59127;SDS011;44912;52.754;5.994;2023-02-25T01:53:34;21.20;;;3.15;;
59127;SDS011;44912;52.754;5.994;2023-02-25T01:56:04;20.92;;;3.70;;
59127;SDS011;44912;52.754;5.994;2023-02-25T01:58:30;14.60;;;2.67;;
59127;SDS011;44912;52.754;5.994;2023-02-25T02:00:57;21.70;;;3.92;;
59127;SDS011;44912;52.754;5.994;2023-02-25T02:03:32;19.33;;;3.58;;
59127;SDS011;44912;52.754;5.994;2023-02-25T02:08:40;20.70;;;3.05;;
59127;SDS011;44912;52.754;5.994;2023-02-25T02:11:07;15.43;;;3.17;;
59127;SDS011;44912;52.754;5.994;2023-02-25T02:13:33;23.00;;;3.35;;
59127;SDS011;44912;52.754;5.994;2023-02-25T02:18:38;23.58;;;3.78;;
59127;SDS011;44912;52.754;5.994;2023-02-25T02:21:14;27.63;;;3.65;;
59127;SDS011;44912;52.754;5.994;2023-02-25T02:23:50;24.92;;;3.53;;
59127;SDS011;44912;52.754;5.994;2023-02-25T02:29:06;23.20;;;4.68;;
59127;SDS011;44912;52.754;5.994;2023-02-25T02:31:50;16.88;;;2.80;;
59127;SDS011;44912;52.754;5.994;2023-02-25T02:34:45;21.45;;;3.63;;
59127;SDS011;44912;52.754;5.994;2023-02-25T02:40:08;25.88;;;3.72;;
59127;SDS011;44912;52.754;5.994;2023-02-25T02:42:53;22.27;;;3.47;;
59127;SDS011;44912;52.754;5.994;2023-02-25T02:45:38;20.85;;;3.30;;
59127;SDS011;44912;52.754;5.994;2023-02-25T02:48:14;22.30;;;3.53;;
59127;SDS011;44912;52.754;5.994;2023-02-25T02:50:46;22.95;;;3.17;;
59127;SDS011;44912;52.754;5.994;2023-02-25T02:53:18;19.73;;;3.33;;
59127;SDS011;44912;52.754;5.994;2023-02-25T02:55:50;19.85;;;3.05;;
59127;SDS011;44912;52.754;5.994;2023-02-25T03:00:53;27.00;;;3.85;;
59127;SDS011;44912;52.754;5.994;2023-02-25T03:03:33;21.48;;;3.55;;
59127;SDS011;44912;52.754;5.994;2023-02-25T03:06:24;26.23;;;3.55;;
59127;SDS011;44912;52.754;5.994;2023-02-25T03:09:01;22.08;;;3.60;;
59127;SDS011;44912;52.754;5.994;2023-02-25T03:11:34;18.73;;;3.47;;
59127;SDS011;44912;52.754;5.994;2023-02-25T03:14:00;27.20;;;3.92;;
59127;SDS011;44912;52.754;5.994;2023-02-25T03:16:27;18.77;;;3.70;;
59127;SDS011;44912;52.754;5.994;2023-02-25T03:21:37;15.05;;;2.40;;
59127;SDS011;44912;52.754;5.994;2023-02-25T03:24:07;17.65;;;2.92;;
59127;SDS011;44912;52.754;5.994;2023-02-25T03:26:37;18.10;;;2.88;;
59127;SDS011;44912;52.754;5.994;2023-02-25T03:29:08;14.80;;;2.55;;
59127;SDS011;44912;52.754;5.994;2023-02-25T03:31:44;19.58;;;2.80;;
59127;SDS011;44912;52.754;5.994;2023-02-25T03:34:34;14.27;;;2.20;;
59127;SDS011;44912;52.754;5.994;2023-02-25T03:37:04;14.90;;;2.03;;
59127;SDS011;44912;52.754;5.994;2023-02-25T03:39:39;18.08;;;2.80;;
59127;SDS011;44912;52.754;5.994;2023-02-25T03:42:11;14.65;;;2.17;;
59127;SDS011;44912;52.754;5.994;2023-02-25T03:44:44;14.18;;;2.67;;
59127;SDS011;44912;52.754;5.994;2023-02-25T03:47:13;13.33;;;2.70;;
59127;SDS011;44912;52.754;5.994;2023-02-25T03:49:45;14.68;;;2.70;;
59127;SDS011;44912;52.754;5.994;2023-02-25T03:52:19;15.52;;;2.85;;
59127;SDS011;44912;52.754;5.994;2023-02-25T03:54:48;21.65;;;3.03;;
59127;SDS011;44912;52.754;5.994;2023-02-25T03:57:19;19.15;;;2.75;;
59127;SDS011;44912;52.754;5.994;2023-02-25T03:59:51;15.48;;;2.88;;
59127;SDS011;44912;52.754;5.994;2023-02-25T04:02:20;20.10;;;3.25;;
59127;SDS011;44912;52.754;5.994;2023-02-25T04:04:53;23.77;;;3.92;;
59127;SDS011;44912;52.754;5.994;2023-02-25T04:07:19;21.40;;;2.90;;
59127;SDS011;44912;52.754;5.994;2023-02-25T04:09:44;21.65;;;2.97;;
59127;SDS011;44912;52.754;5.994;2023-02-25T04:12:10;19.60;;;3.28;;
59127;SDS011;44912;52.754;5.994;2023-02-25T04:14:35;21.20;;;3.10;;
59127;SDS011;44912;52.754;5.994;2023-02-25T04:17:01;22.23;;;3.67;;
59127;SDS011;44912;52.754;5.994;2023-02-25T04:19:28;20.13;;;4.18;;
59127;SDS011;44912;52.754;5.994;2023-02-25T04:21:54;19.55;;;3.42;;
59127;SDS011;44912;52.754;5.994;2023-02-25T04:24:19;23.63;;;3.85;;
59127;SDS011;44912;52.754;5.994;2023-02-25T04:26:45;18.33;;;3.25;;
59127;SDS011;44912;52.754;5.994;2023-02-25T04:29:11;21.15;;;3.10;;
59127;SDS011;44912;52.754;5.994;2023-02-25T04:31:36;19.20;;;3.05;;
59127;SDS011;44912;52.754;5.994;2023-02-25T04:34:02;20.92;;;3.25;;
59127;SDS011;44912;52.754;5.994;2023-02-25T04:36:31;18.60;;;3.42;;
59127;SDS011;44912;52.754;5.994;2023-02-25T04:38:59;23.48;;;3.83;;
59127;SDS011;44912;52.754;5.994;2023-02-25T04:41:31;28.50;;;3.42;;
59127;SDS011;44912;52.754;5.994;2023-02-25T04:43:58;20.48;;;3.15;;
59127;SDS011;44912;52.754;5.994;2023-02-25T04:46:24;21.77;;;4.20;;
59127;SDS011;44912;52.754;5.994;2023-02-25T04:48:50;27.55;;;3.22;;
59127;SDS011;44912;52.754;5.994;2023-02-25T04:51:16;23.95;;;3.65;;
59127;SDS011;44912;52.754;5.994;2023-02-25T04:53:41;20.35;;;3.42;;
59127;SDS011;44912;52.754;5.994;2023-02-25T04:56:07;24.17;;;3.78;;
59127;SDS011;44912;52.754;5.994;2023-02-25T04:58:34;22.02;;;3.50;;
59127;SDS011;44912;52.754;5.994;2023-02-25T05:01:01;22.40;;;3.10;;
59127;SDS011;44912;52.754;5.994;2023-02-25T05:03:29;19.30;;;3.33;;
59127;SDS011;44912;52.754;5.994;2023-02-25T05:05:55;26.73;;;3.55;;
59127;SDS011;44912;52.754;5.994;2023-02-25T05:08:21;24.27;;;3.58;;
59127;SDS011;44912;52.754;5.994;2023-02-25T05:10:47;22.48;;;3.13;;
59127;SDS011;44912;52.754;5.994;2023-02-25T05:13:13;19.25;;;3.13;;
59127;SDS011;44912;52.754;5.994;2023-02-25T05:15:38;12.63;;;2.38;;
59127;SDS011;44912;52.754;5.994;2023-02-25T05:18:04;15.05;;;2.10;;
59127;SDS011;44912;52.754;5.994;2023-02-25T05:20:29;16.67;;;2.25;;
59127;SDS011;44912;52.754;5.994;2023-02-25T05:22:55;17.23;;;2.70;;
59127;SDS011;44912;52.754;5.994;2023-02-25T05:25:20;14.93;;;2.65;;
59127;SDS011;44912;52.754;5.994;2023-02-25T05:27:46;18.85;;;2.15;;
59127;SDS011;44912;52.754;5.994;2023-02-25T05:30:12;13.18;;;2.78;;
59127;SDS011;44912;52.754;5.994;2023-02-25T05:32:38;14.50;;;2.35;;
59127;SDS011;44912;52.754;5.994;2023-02-25T05:35:05;15.18;;;2.08;;
59127;SDS011;44912;52.754;5.994;2023-02-25T05:37:35;13.25;;;2.05;;
59127;SDS011;44912;52.754;5.994;2023-02-25T05:40:00;11.05;;;1.88;;
59127;SDS011;44912;52.754;5.994;2023-02-25T05:42:27;12.45;;;2.25;;
59127;SDS011;44912;52.754;5.994;2023-02-25T05:44:52;12.25;;;1.92;;
59127;SDS011;44912;52.754;5.994;2023-02-25T05:47:18;11.95;;;1.80;;
59127;SDS011;44912;52.754;5.994;2023-02-25T05:49:43;12.60;;;2.15;;
59127;SDS011;44912;52.754;5.994;2023-02-25T05:52:10;12.25;;;2.00;;
59127;SDS011;44912;52.754;5.994;2023-02-25T05:54:37;10.23;;;1.58;;
59127;SDS011;44912;52.754;5.994;2023-02-25T05:57:03;12.48;;;2.35;;
59127;SDS011;44912;52.754;5.994;2023-02-25T05:59:29;10.23;;;1.83;;
59127;SDS011;44912;52.754;5.994;2023-02-25T06:01:55;9.20;;;1.90;;
59127;SDS011;44912;52.754;5.994;2023-02-25T06:04:20;11.23;;;1.92;;
59127;SDS011;44912;52.754;5.994;2023-02-25T06:06:46;14.35;;;2.00;;
59127;SDS011;44912;52.754;5.994;2023-02-25T06:09:18;11.35;;;1.77;;
59127;SDS011;44912;52.754;5.994;2023-02-25T06:11:45;13.23;;;1.90;;
59127;SDS011;44912;52.754;5.994;2023-02-25T06:14:12;13.35;;;1.92;;
59127;SDS011;44912;52.754;5.994;2023-02-25T06:16:38;19.23;;;2.20;;
59127;SDS011;44912;52.754;5.994;2023-02-25T06:19:04;13.48;;;2.13;;
59127;SDS011;44912;52.754;5.994;2023-02-25T06:21:30;14.75;;;2.85;;
59127;SDS011;44912;52.754;5.994;2023-02-25T06:23:57;11.02;;;2.05;;
59127;SDS011;44912;52.754;5.994;2023-02-25T06:26:22;13.95;;;1.85;;
59127;SDS011;44912;52.754;5.994;2023-02-25T06:28:48;14.77;;;2.20;;
59127;SDS011;44912;52.754;5.994;2023-02-25T06:31:14;11.07;;;1.60;;
59127;SDS011;44912;52.754;5.994;2023-02-25T06:33:41;10.40;;;1.60;;
59127;SDS011;44912;52.754;5.994;2023-02-25T06:36:08;9.52;;;1.63;;
59127;SDS011;44912;52.754;5.994;2023-02-25T06:38:34;8.07;;;1.20;;
59127;SDS011;44912;52.754;5.994;2023-02-25T06:41:04;5.38;;;1.25;;
59127;SDS011;44912;52.754;5.994;2023-02-25T06:43:34;9.13;;;1.30;;
59127;SDS011;44912;52.754;5.994;2023-02-25T06:46:02;6.43;;;1.25;;
59127;SDS011;44912;52.754;5.994;2023-02-25T06:48:29;7.07;;;1.30;;
59127;SDS011;44912;52.754;5.994;2023-02-25T06:50:55;5.75;;;0.95;;
59127;SDS011;44912;52.754;5.994;2023-02-25T06:53:20;9.45;;;1.13;;
59127;SDS011;44912;52.754;5.994;2023-02-25T06:55:46;6.47;;;1.00;;
59127;SDS011;44912;52.754;5.994;2023-02-25T06:58:12;2.20;;;0.63;;
59127;SDS011;44912;52.754;5.994;2023-02-25T07:00:37;4.72;;;0.85;;
59127;SDS011;44912;52.754;5.994;2023-02-25T07:03:09;6.75;;;1.10;;
59127;SDS011;44912;52.754;5.994;2023-02-25T07:05:36;6.18;;;1.02;;
59127;SDS011;44912;52.754;5.994;2023-02-25T07:08:02;6.22;;;0.98;;
59127;SDS011;44912;52.754;5.994;2023-02-25T07:10:27;4.32;;;0.88;;
59127;SDS011;44912;52.754;5.994;2023-02-25T07:12:53;4.93;;;0.80;;
59127;SDS011;44912;52.754;5.994;2023-02-25T07:15:19;4.65;;;0.90;;
59127;SDS011;44912;52.754;5.994;2023-02-25T07:17:45;5.68;;;0.90;;
59127;SDS011;44912;52.754;5.994;2023-02-25T07:20:11;4.93;;;0.93;;
59127;SDS011;44912;52.754;5.994;2023-02-25T07:22:37;7.38;;;1.02;;
59127;SDS011;44912;52.754;5.994;2023-02-25T07:25:02;4.47;;;0.77;;
59127;SDS011;44912;52.754;5.994;2023-02-25T07:27:28;5.03;;;0.90;;
59127;SDS011;44912;52.754;5.994;2023-02-25T07:29:54;6.30;;;0.70;;
59127;SDS011;44912;52.754;5.994;2023-02-25T07:32:20;7.10;;;1.10;;
59127;SDS011;44912;52.754;5.994;2023-02-25T07:34:48;4.40;;;0.90;;
59127;SDS011;44912;52.754;5.994;2023-02-25T07:37:13;7.60;;;1.75;;
59127;SDS011;44912;52.754;5.994;2023-02-25T07:39:39;11.40;;;2.20;;
59127;SDS011;44912;52.754;5.994;2023-02-25T07:42:04;5.90;;;1.95;;
59127;SDS011;44912;52.754;5.994;2023-02-25T07:44:30;10.10;;;2.22;;
59127;SDS011;44912;52.754;5.994;2023-02-25T07:46:56;5.68;;;1.33;;
59127;SDS011;44912;52.754;5.994;2023-02-25T07:49:21;7.93;;;1.10;;
59127;SDS011;44912;52.754;5.994;2023-02-25T07:51:47;8.88;;;2.08;;
59127;SDS011;44912;52.754;5.994;2023-02-25T07:54:12;5.55;;;1.30;;
59127;SDS011;44912;52.754;5.994;2023-02-25T07:56:39;3.50;;;0.90;;
59127;SDS011;44912;52.754;5.994;2023-02-25T07:59:05;4.90;;;1.10;;
59127;SDS011;44912;52.754;5.994;2023-02-25T08:01:31;3.92;;;0.88;;
59127;SDS011;44912;52.754;5.994;2023-02-25T08:04:00;7.88;;;1.50;;
59127;SDS011;44912;52.754;5.994;2023-02-25T08:06:30;4.10;;;1.50;;
59127;SDS011;44912;52.754;5.994;2023-02-25T08:08:58;7.07;;;1.50;;
59127;SDS011;44912;52.754;5.994;2023-02-25T08:11:24;5.75;;;1.20;;
59127;SDS011;44912;52.754;5.994;2023-02-25T08:13:51;8.38;;;1.77;;
59127;SDS011;44912;52.754;5.994;2023-02-25T08:16:18;7.88;;;2.10;;
59127;SDS011;44912;52.754;5.994;2023-02-25T08:18:44;5.70;;;1.00;;
59127;SDS011;44912;52.754;5.994;2023-02-25T08:21:11;6.97;;;1.20;;
59127;SDS011;44912;52.754;5.994;2023-02-25T08:23:39;4.85;;;1.35;;
59127;SDS011;44912;52.754;5.994;2023-02-25T08:26:05;4.63;;;1.15;;
59127;SDS011;44912;52.754;5.994;2023-02-25T08:28:33;6.53;;;1.35;;
59127;SDS011;44912;52.754;5.994;2023-02-25T08:31:00;7.32;;;1.48;;
59127;SDS011;44912;52.754;5.994;2023-02-25T08:33:26;6.63;;;1.00;;
59127;SDS011;44912;52.754;5.994;2023-02-25T08:35:53;5.97;;;1.00;;
59127;SDS011;44912;52.754;5.994;2023-02-25T08:38:19;8.63;;;1.20;;
59127;SDS011;44912;52.754;5.994;2023-02-25T08:40:45;7.25;;;1.10;;
59127;SDS011;44912;52.754;5.994;2023-02-25T08:43:10;9.98;;;1.42;;
59127;SDS011;44912;52.754;5.994;2023-02-25T08:45:37;8.88;;;1.40;;
59127;SDS011;44912;52.754;5.994;2023-02-25T08:48:04;10.82;;;2.25;;
59127;SDS011;44912;52.754;5.994;2023-02-25T08:50:29;15.98;;;4.55;;
59127;SDS011;44912;52.754;5.994;2023-02-25T08:52:55;16.83;;;6.03;;
59127;SDS011;44912;52.754;5.994;2023-02-25T08:55:21;18.67;;;7.00;;
59127;SDS011;44912;52.754;5.994;2023-02-25T08:57:49;12.82;;;3.67;;
59127;SDS011;44912;52.754;5.994;2023-02-25T09:00:15;14.38;;;3.97;;
59127;SDS011;44912;52.754;5.994;2023-02-25T09:02:41;11.95;;;2.88;;
59127;SDS011;44912;52.754;5.994;2023-02-25T09:05:07;12.40;;;2.80;;
59127;SDS011;44912;52.754;5.994;2023-02-25T09:07:33;11.82;;;1.98;;
59127;SDS011;44912;52.754;5.994;2023-02-25T09:09:59;11.48;;;1.90;;
59127;SDS011;44912;52.754;5.994;2023-02-25T09:12:24;8.50;;;1.67;;
59127;SDS011;44912;52.754;5.994;2023-02-25T09:14:50;17.75;;;2.08;;
59127;SDS011;44912;52.754;5.994;2023-02-25T09:17:16;9.48;;;1.65;;
59127;SDS011;44912;52.754;5.994;2023-02-25T09:19:41;13.07;;;2.13;;
59127;SDS011;44912;52.754;5.994;2023-02-25T09:22:07;11.57;;;1.50;;
59127;SDS011;44912;52.754;5.994;2023-02-25T09:24:34;12.57;;;2.10;;
59127;SDS011;44912;52.754;5.994;2023-02-25T09:27:01;9.40;;;1.38;;
59127;SDS011;44912;52.754;5.994;2023-02-25T09:29:38;9.73;;;1.75;;
59127;SDS011;44912;52.754;5.994;2023-02-25T09:32:05;8.63;;;1.40;;
59127;SDS011;44912;52.754;5.994;2023-02-25T09:34:31;10.93;;;2.05;;
59127;SDS011;44912;52.754;5.994;2023-02-25T09:37:02;13.35;;;1.67;;
59127;SDS011;44912;52.754;5.994;2023-02-25T09:39:28;10.55;;;1.65;;
59127;SDS011;44912;52.754;5.994;2023-02-25T09:41:55;9.38;;;1.77;;
59127;SDS011;44912;52.754;5.994;2023-02-25T09:44:35;7.68;;;1.50;;
59127;SDS011;44912;52.754;5.994;2023-02-25T09:47:18;8.70;;;1.40;;
59127;SDS011;44912;52.754;5.994;2023-02-25T09:52:31;9.20;;;1.30;;
59127;SDS011;44912;52.754;5.994;2023-02-25T09:57:34;7.32;;;1.38;;
59127;SDS011;44912;52.754;5.994;2023-02-25T10:00:03;8.52;;;1.80;;
59127;SDS011;44912;52.754;5.994;2023-02-25T10:02:42;9.05;;;1.30;;
59127;SDS011;44912;52.754;5.994;2023-02-25T10:07:54;14.27;;;2.10;;
59127;SDS011;44912;52.754;5.994;2023-02-25T10:10:32;8.10;;;1.48;;
59127;SDS011;44912;52.754;5.994;2023-02-25T10:13:20;11.65;;;2.00;;
59127;SDS011;44912;52.754;5.994;2023-02-25T10:16:07;10.38;;;1.60;;
59127;SDS011;44912;52.754;5.994;2023-02-25T10:18:59;10.50;;;1.90;;
59127;SDS011;44912;52.754;5.994;2023-02-25T10:21:48;9.70;;;1.73;;
59127;SDS011;44912;52.754;5.994;2023-02-25T10:27:16;8.98;;;1.73;;
59127;SDS011;44912;52.754;5.994;2023-02-25T10:29:50;10.20;;;1.80;;
59127;SDS011;44912;52.754;5.994;2023-02-25T10:34:47;10.65;;;1.67;;
59127;SDS011;44912;52.754;5.994;2023-02-25T10:37:22;15.10;;;2.03;;
59127;SDS011;44912;52.754;5.994;2023-02-25T10:39:54;10.95;;;2.13;;
59127;SDS011;44912;52.754;5.994;2023-02-25T10:42:22;14.07;;;1.95;;
59127;SDS011;44912;52.754;5.994;2023-02-25T10:44:48;8.65;;;1.38;;
59127;SDS011;44912;52.754;5.994;2023-02-25T10:47:17;8.45;;;1.60;;
59127;SDS011;44912;52.754;5.994;2023-02-25T10:55:29;10.15;;;1.80;;
59127;SDS011;44912;52.754;5.994;2023-02-25T10:58:25;8.02;;;1.67;;
59127;SDS011;44912;52.754;5.994;2023-02-25T11:01:24;9.68;;;1.75;;
59127;SDS011;44912;52.754;5.994;2023-02-25T11:08:46;11.20;;;2.03;;
59127;SDS011;44912;52.754;5.994;2023-02-25T11:11:13;11.65;;;1.83;;
59127;SDS011;44912;52.754;5.994;2023-02-25T11:13:54;10.15;;;1.98;;
59127;SDS011;44912;52.754;5.994;2023-02-25T11:16:30;12.95;;;2.65;;
59127;SDS011;44912;52.754;5.994;2023-02-25T11:18:59;15.35;;;3.45;;
59127;SDS011;44912;52.754;5.994;2023-02-25T11:21:31;16.77;;;3.45;;
59127;SDS011;44912;52.754;5.994;2023-02-25T11:24:01;10.95;;;2.47;;
59127;SDS011;44912;52.754;5.994;2023-02-25T11:26:36;10.43;;;2.50;;
59127;SDS011;44912;52.754;5.994;2023-02-25T11:29:07;8.85;;;1.80;;
59127;SDS011;44912;52.754;5.994;2023-02-25T11:31:38;11.65;;;1.90;;
59127;SDS011;44912;52.754;5.994;2023-02-25T11:34:12;14.55;;;2.42;;
59127;SDS011;44912;52.754;5.994;2023-02-25T11:36:45;11.00;;;1.75;;
59127;SDS011;44912;52.754;5.994;2023-02-25T11:39:18;12.52;;;1.95;;
59127;SDS011;44912;52.754;5.994;2023-02-25T11:41:49;14.40;;;2.03;;
59127;SDS011;44912;52.754;5.994;2023-02-25T11:47:25;10.38;;;2.08;;
59127;SDS011;44912;52.754;5.994;2023-02-25T11:50:03;8.55;;;1.80;;
59127;SDS011;44912;52.754;5.994;2023-02-25T11:52:45;12.00;;;2.08;;
59127;SDS011;44912;52.754;5.994;2023-02-25T11:58:42;11.00;;;1.65;;
59127;SDS011;44912;52.754;5.994;2023-02-25T12:01:30;9.15;;;1.73;;
59127;SDS011;44912;52.754;5.994;2023-02-25T12:04:27;9.15;;;1.67;;
59127;SDS011;44912;52.754;5.994;2023-02-25T12:18:30;12.20;;;1.63;;
59127;SDS011;44912;52.754;5.994;2023-02-25T12:24:14;9.52;;;1.73;;
59127;SDS011;44912;52.754;5.994;2023-02-25T12:33:00;16.65;;;3.92;;
59127;SDS011;44912;52.754;5.994;2023-02-25T12:38:51;13.70;;;1.90;;
59127;SDS011;44912;52.754;5.994;2023-02-25T12:49:57;8.13;;;1.30;;
59127;SDS011;44912;52.754;5.994;2023-02-25T12:58:38;6.15;;;1.25;;
59127;SDS011;44912;52.754;5.994;2023-02-25T13:01:21;5.22;;;1.05;;
59127;SDS011;44912;52.754;5.994;2023-02-25T13:07:13;11.43;;;2.70;;
59127;SDS011;44912;52.754;5.994;2023-02-25T13:15:19;5.38;;;0.88;;
59127;SDS011;44912;52.754;5.994;2023-02-25T13:34:16;7.18;;;1.30;;
59127;SDS011;44912;52.754;5.994;2023-02-25T13:42:57;6.70;;;1.02;;
59127;SDS011;44912;52.754;5.994;2023-02-25T13:48:31;6.88;;;1.20;;
59127;SDS011;44912;52.754;5.994;2023-02-25T13:56:35;9.95;;;1.30;;
59127;SDS011;44912;52.754;5.994;2023-02-25T14:02:33;8.15;;;1.23;;
59127;SDS011;44912;52.754;5.994;2023-02-25T14:13:41;13.20;;;2.67;;
59127;SDS011;44912;52.754;5.994;2023-02-25T14:19:08;20.60;;;6.20;;
59127;SDS011;44912;52.754;5.994;2023-02-25T14:22:16;9.73;;;1.52;;
59127;SDS011;44912;52.754;5.994;2023-02-25T14:27:47;8.90;;;1.45;;
59127;SDS011;44912;52.754;5.994;2023-02-25T14:33:18;7.03;;;1.38;;
59127;SDS011;44912;52.754;5.994;2023-02-25T14:36:12;5.22;;;1.15;;
59127;SDS011;44912;52.754;5.994;2023-02-25T14:41:40;11.02;;;1.50;;
59127;SDS011;44912;52.754;5.994;2023-02-25T14:44:38;8.75;;;1.70;;
59127;SDS011;44912;52.754;5.994;2023-02-25T14:47:13;11.45;;;1.85;;
59127;SDS011;44912;52.754;5.994;2023-02-25T14:49:55;8.63;;;1.42;;
59127;SDS011;44912;52.754;5.994;2023-02-25T14:58:39;5.32;;;1.10;;
59127;SDS011;44912;52.754;5.994;2023-02-25T15:13:03;5.75;;;1.30;;
59127;SDS011;44912;52.754;5.994;2023-02-25T15:15:49;9.65;;;1.38;;
59127;SDS011;44912;52.754;5.994;2023-02-25T15:24:03;7.85;;;1.10;;
59127;SDS011;44912;52.754;5.994;2023-02-25T15:26:40;6.20;;;1.27;;
59127;SDS011;44912;52.754;5.994;2023-02-25T15:37:30;5.90;;;1.10;;
59127;SDS011;44912;52.754;5.994;2023-02-25T15:42:49;10.32;;;1.67;;
59127;SDS011;44912;52.754;5.994;2023-02-25T15:55:46;12.45;;;1.90;;
59127;SDS011;44912;52.754;5.994;2023-02-25T16:00:50;10.75;;;1.50;;
59127;SDS011;44912;52.754;5.994;2023-02-25T16:06:10;7.78;;;1.42;;
59127;SDS011;44912;52.754;5.994;2023-02-25T16:11:35;7.82;;;1.20;;
59127;SDS011;44912;52.754;5.994;2023-02-25T16:14:11;7.80;;;1.25;;
59127;SDS011;44912;52.754;5.994;2023-02-25T16:16:41;10.50;;;1.63;;
59127;SDS011;44912;52.754;5.994;2023-02-25T16:19:15;7.45;;;1.27;;
59127;SDS011;44912;52.754;5.994;2023-02-25T16:21:44;8.73;;;1.50;;
59127;SDS011;44912;52.754;5.994;2023-02-25T16:24:11;10.70;;;1.48;;
59127;SDS011;44912;52.754;5.994;2023-02-25T16:26:52;7.78;;;1.17;;
59127;SDS011;44912;52.754;5.994;2023-02-25T16:29:38;5.43;;;1.60;;
59127;SDS011;44912;52.754;5.994;2023-02-25T16:35:11;8.38;;;1.30;;
59127;SDS011;44912;52.754;5.994;2023-02-25T16:37:54;7.18;;;1.10;;
59127;SDS011;44912;52.754;5.994;2023-02-25T16:40:37;8.88;;;1.55;;
59127;SDS011;44912;52.754;5.994;2023-02-25T16:43:09;12.32;;;1.48;;
59127;SDS011;44912;52.754;5.994;2023-02-25T16:45:39;5.68;;;1.10;;
59127;SDS011;44912;52.754;5.994;2023-02-25T16:48:13;9.43;;;1.40;;
59127;SDS011;44912;52.754;5.994;2023-02-25T16:50:45;7.95;;;1.48;;
59127;SDS011;44912;52.754;5.994;2023-02-25T16:53:20;9.30;;;1.10;;
59127;SDS011;44912;52.754;5.994;2023-02-25T16:55:48;8.88;;;1.63;;
59127;SDS011;44912;52.754;5.994;2023-02-25T16:58:21;9.02;;;1.50;;
59127;SDS011;44912;52.754;5.994;2023-02-25T17:00:50;6.63;;;1.27;;
59127;SDS011;44912;52.754;5.994;2023-02-25T17:03:16;7.03;;;1.10;;
59127;SDS011;44912;52.754;5.994;2023-02-25T17:05:43;8.98;;;1.70;;
59127;SDS011;44912;52.754;5.994;2023-02-25T17:08:13;7.47;;;1.58;;
59127;SDS011;44912;52.754;5.994;2023-02-25T17:10:47;9.10;;;1.30;;
59127;SDS011;44912;52.754;5.994;2023-02-25T17:13:27;8.18;;;1.65;;
59127;SDS011;44912;52.754;5.994;2023-02-25T17:15:56;7.85;;;2.33;;
59127;SDS011;44912;52.754;5.994;2023-02-25T17:18:26;8.38;;;1.92;;
59127;SDS011;44912;52.754;5.994;2023-02-25T17:21:26;9.52;;;2.10;;
59127;SDS011;44912;52.754;5.994;2023-02-25T17:23:54;8.77;;;1.30;;
59127;SDS011;44912;52.754;5.994;2023-02-25T17:26:21;4.88;;;0.95;;
59127;SDS011;44912;52.754;5.994;2023-02-25T17:28:48;11.38;;;1.73;;
59127;SDS011;44912;52.754;5.994;2023-02-25T17:31:21;11.10;;;1.70;;
59127;SDS011;44912;52.754;5.994;2023-02-25T17:36:20;6.80;;;1.80;;
59127;SDS011;44912;52.754;5.994;2023-02-25T17:38:50;10.63;;;1.48;;
59127;SDS011;44912;52.754;5.994;2023-02-25T17:41:22;11.20;;;1.65;;
59127;SDS011;44912;52.754;5.994;2023-02-25T17:43:48;6.10;;;1.40;;
59127;SDS011;44912;52.754;5.994;2023-02-25T17:48:49;8.18;;;2.15;;
59127;SDS011;44912;52.754;5.994;2023-02-25T17:51:17;10.27;;;1.60;;
59127;SDS011;44912;52.754;5.994;2023-02-25T17:53:54;6.03;;;1.75;;
59127;SDS011;44912;52.754;5.994;2023-02-25T17:56:27;5.63;;;1.83;;
59127;SDS011;44912;52.754;5.994;2023-02-25T18:01:47;10.18;;;1.73;;
59127;SDS011;44912;52.754;5.994;2023-02-25T18:04:34;9.00;;;1.55;;
59127;SDS011;44912;52.754;5.994;2023-02-25T18:09:54;9.05;;;1.27;;
59127;SDS011;44912;52.754;5.994;2023-02-25T18:12:33;6.65;;;1.88;;
59127;SDS011;44912;52.754;5.994;2023-02-25T18:15:14;9.15;;;1.88;;
59127;SDS011;44912;52.754;5.994;2023-02-25T18:17:42;6.90;;;1.35;;
59127;SDS011;44912;52.754;5.994;2023-02-25T18:20:33;8.10;;;1.70;;
59127;SDS011;44912;52.754;5.994;2023-02-25T18:23:05;11.13;;;2.13;;
59127;SDS011;44912;52.754;5.994;2023-02-25T18:25:37;7.10;;;1.50;;
59127;SDS011;44912;52.754;5.994;2023-02-25T18:28:11;7.75;;;1.83;;
59127;SDS011;44912;52.754;5.994;2023-02-25T18:30:38;10.38;;;1.80;;
59127;SDS011;44912;52.754;5.994;2023-02-25T18:33:04;12.57;;;1.80;;
59127;SDS011;44912;52.754;5.994;2023-02-25T18:35:30;15.38;;;2.00;;